Time;durP1;ratioP1;P1;durP2;ratioP2;P2;SDS_P1;SDS_P2;PMS_P1;PMS_P2;Temp;Humidity;BMP_temperature;BMP_pressure;BME280_temperature;BME280_humidity;BME280_pressure;Samples;Min_cycle;Max_cycle;Signal;HPM_P1;HPM_P2
2023/11/25 00:00:39;;;;;;;;;;;;;;;-6.06;84.08;96522.75;5001621;28;19979;-80
2023/11/25 00:03:05;;;;;;;;;;;;;;;-6.00;83.76;96529.69;5001152;28;19986;-80
2023/11/25 00:05:31;;;;;;;;;;;;;;;-6.04;83.29;96534.72;5001302;28;19925;-79
2023/11/25 00:07:57;;;;;;;;;;;;;;;-5.97;83.76;96542.50;5000785;28;19933;-81
2023/11/25 00:10:23;;;;;;;;;;;;;;;-5.91;83.38;96540.69;5002722;28;19933;-80
2023/11/25 00:12:50;;;;;;;;;;;;;;;-5.92;83.09;96539.09;4999857;28;20400;-80
2023/11/25 00:15:16;;;;;;;;;;;;;;;-6.03;83.24;96544.31;5002591;28;19940;-80
2023/11/25 00:17:42;;;;;;;;;;;;;;;-6.02;83.57;96542.47;5001728;28;20747;-80
2023/11/25 00:20:08;;;;;;;;;;;;;;;-5.99;83.04;96541.94;4999975;28;20412;-81
2023/11/25 00:22:35;;;;;;;;;;;;;;;-6.00;82.81;96540.31;5000708;28;20450;-80
2023/11/25 00:25:01;;;;;;;;;;;;;;;-6.04;82.56;96541.91;5002246;28;20033;-81
2023/11/25 00:27:27;;;;;;;;;;;;;;;-6.13;82.43;96547.66;5003062;28;19925;-80
2023/11/25 00:29:55;;;;;;;;;;;;;;;-6.18;83.10;96541.47;5000458;28;19937;-81
2023/11/25 00:32:20;;;;;;;;;;;;;;;-6.19;83.29;96547.81;5001136;28;19925;-80
2023/11/25 00:34:47;;;;;;;;;;;;;;;-6.11;83.65;96552.72;4982585;28;20315;-81
2023/11/25 00:37:12;;;;;;;;;;;;;;;-6.08;83.73;96549.56;5001909;28;20322;-81
2023/11/25 00:39:38;;;;;;;;;;;;;;;-6.00;83.92;96554.44;5000281;28;20028;-81
2023/11/25 00:42:04;;;;;;;;;;;;;;;-5.99;83.72;96548.06;4982661;28;19925;-75
2023/11/25 00:44:31;;;;;;;;;;;;;;;-6.02;82.85;96551.25;4962259;28;19947;-74
2023/11/25 00:46:58;;;;;;;;;;;;;;;-6.00;83.44;96549.13;5001049;28;19993;-75
2023/11/25 00:49:25;;;;;;;;;;;;;;;-5.84;84.17;96547.44;5002394;28;19980;-75
2023/11/25 00:51:50;;;;;;;;;;;;;;;-5.87;84.22;96555.94;4966967;28;20289;-75
2023/11/25 00:54:17;;;;;;;;;;;;;;;-5.93;84.04;96550.78;4994573;28;20015;-74
2023/11/25 00:56:42;;;;;;;;;;;;;;;-5.96;84.30;96554.75;4969162;28;20404;-74
2023/11/25 00:59:08;;;;;;;;;;;;;;;-6.04;83.23;96563.19;5000008;28;19925;-75
2023/11/25 01:01:34;;;;;;;;;;;;;;;-6.08;83.58;96560.22;5000993;28;19929;-74
2023/11/25 01:04:01;;;;;;;;;;;;;;;-6.16;84.18;96553.47;5000702;28;20059;-74
2023/11/25 01:06:27;;;;;;;;;;;;;;;-6.16;84.26;96555.34;5003461;28;20358;-75
2023/11/25 01:08:53;;;;;;;;;;;;;;;-6.14;84.52;96562.00;5000513;28;19978;-75
2023/11/25 01:11:19;;;;;;;;;;;;;;;-6.06;83.97;96565.31;4982092;28;19960;-74
2023/11/25 01:13:46;;;;;;;;;;;;;;;-5.96;83.86;96560.06;4981492;28;19968;-75
2023/11/25 01:16:16;;;;;;;;;;;;;;;-5.95;83.60;96556.34;4969663;28;20286;-75
2023/11/25 01:18:42;;;;;;;;;;;;;;;-5.98;83.55;96565.66;4980453;28;20285;-74
2023/11/25 01:21:09;;;;;;;;;;;;;;;-5.99;83.92;96561.38;4964000;28;19971;-75
2023/11/25 01:23:35;;;;;;;;;;;;;;;-5.96;84.36;96560.06;4980574;28;19929;-80
2023/11/25 01:26:01;;;;;;;;;;;;;;;-5.94;84.19;96568.59;4963735;28;19934;-80
2023/11/25 01:28:29;;;;;;;;;;;;;;;-5.99;84.28;96568.53;5000446;28;19948;-79
2023/11/25 01:30:55;;;;;;;;;;;;;;;-5.96;84.58;96568.03;4984763;28;19925;-79
2023/11/25 01:33:21;;;;;;;;;;;;;;;-5.91;84.49;96567.31;4968744;28;20453;-80
2023/11/25 01:35:47;;;;;;;;;;;;;;;-5.95;84.77;96574.97;5001304;28;20299;-80
2023/11/25 01:38:14;;;;;;;;;;;;;;;-5.95;85.15;96569.66;4985109;28;19925;-80
2023/11/25 01:40:40;;;;;;;;;;;;;;;-5.95;85.01;96577.63;5000508;28;19925;-74
2023/11/25 01:43:07;;;;;;;;;;;;;;;-5.96;84.89;96583.22;5000378;28;19932;-76
2023/11/25 01:45:33;;;;;;;;;;;;;;;-5.96;84.82;96580.56;4982613;28;19933;-74
2023/11/25 01:48:02;;;;;;;;;;;;;;;-5.90;85.18;96579.56;4999518;28;19929;-74
2023/11/25 01:50:33;;;;;;;;;;;;;;;-5.85;85.26;96585.75;5002285;28;19991;-74
2023/11/25 01:52:59;;;;;;;;;;;;;;;-5.91;85.05;96592.06;5001168;28;20036;-74
2023/11/25 01:55:27;;;;;;;;;;;;;;;-5.94;85.03;96586.44;4992318;28;20056;-74
2023/11/25 01:57:54;;;;;;;;;;;;;;;-5.93;85.33;96599.50;4964539;28;19925;-74
2023/11/25 02:00:23;;;;;;;;;;;;;;;-5.86;85.23;96597.44;4981599;28;19925;-74
2023/11/25 02:02:49;;;;;;;;;;;;;;;-5.89;85.28;96595.28;4981781;28;19999;-74
2023/11/25 02:05:15;;;;;;;;;;;;;;;-5.92;84.94;96594.97;4990792;28;19964;-73
2023/11/25 02:07:41;;;;;;;;;;;;;;;-5.97;85.24;96601.03;4999664;28;19952;-73
2023/11/25 02:10:10;;;;;;;;;;;;;;;-5.98;84.82;96604.75;4998178;28;19926;-74
2023/11/25 02:12:40;;;;;;;;;;;;;;;-6.00;84.78;96607.66;4982247;28;19978;-73
2023/11/25 02:15:10;;;;;;;;;;;;;;;-6.01;85.17;96614.03;5001798;28;19936;-74
2023/11/25 02:17:40;;;;;;;;;;;;;;;-6.01;85.07;96610.59;5000374;28;19948;-74
2023/11/25 02:20:08;;;;;;;;;;;;;;;-6.02;84.51;96611.66;4982138;28;19929;-79
2023/11/25 02:22:36;;;;;;;;;;;;;;;-6.05;84.83;96612.13;4983340;28;19929;-80
2023/11/25 02:25:04;;;;;;;;;;;;;;;-6.16;84.27;96621.84;5003248;28;20341;-81
2023/11/25 02:27:30;;;;;;;;;;;;;;;-6.19;84.03;96612.47;5002313;28;19925;-80
2023/11/25 02:29:56;;;;;;;;;;;;;;;-6.18;84.29;96615.94;4986933;28;19936;-79
2023/11/25 02:32:23;;;;;;;;;;;;;;;-6.16;84.69;96621.84;5005238;28;20218;-80
2023/11/25 02:34:49;;;;;;;;;;;;;;;-6.13;84.77;96624.00;5002258;28;20380;-80
2023/11/25 02:37:16;;;;;;;;;;;;;;;-6.07;85.04;96630.22;5004178;28;19925;-80
2023/11/25 02:39:41;;;;;;;;;;;;;;;-6.09;85.59;96630.44;5000569;28;19933;-80
2023/11/25 02:42:09;;;;;;;;;;;;;;;-6.09;84.99;96635.75;4999445;28;19926;-74
2023/11/25 02:44:36;;;;;;;;;;;;;;;-6.06;84.77;96635.25;5001826;28;19929;-74
2023/11/25 02:47:04;;;;;;;;;;;;;;;-6.02;84.77;96630.28;4995525;28;19925;-74
2023/11/25 02:49:30;;;;;;;;;;;;;;;-5.97;84.41;96640.94;4967331;28;19987;-74
2023/11/25 02:51:56;;;;;;;;;;;;;;;-5.93;84.53;96643.94;5002955;28;19964;-73
2023/11/25 02:54:22;;;;;;;;;;;;;;;-5.92;84.65;96646.34;4980652;28;20028;-74
2023/11/25 02:56:49;;;;;;;;;;;;;;;-5.95;84.55;96638.03;4990122;28;19926;-73
2023/11/25 02:59:20;;;;;;;;;;;;;;;-6.00;84.94;96647.56;4964208;28;19926;-74
2023/11/25 03:01:51;;;;;;;;;;;;;;;-5.94;84.89;96645.75;4983988;28;19937;-74
2023/11/25 03:04:19;;;;;;;;;;;;;;;-5.95;84.96;96646.03;4948189;28;19961;-73
2023/11/25 03:06:45;;;;;;;;;;;;;;;-5.97;84.81;96646.25;4988116;28;20430;-74
2023/11/25 03:09:13;;;;;;;;;;;;;;;-5.98;84.80;96653.47;4979313;28;20323;-73
2023/11/25 03:11:39;;;;;;;;;;;;;;;-5.97;84.44;96656.91;4985106;28;19926;-74
2023/11/25 03:14:05;;;;;;;;;;;;;;;-6.02;84.09;96656.88;4984735;28;20409;-73
2023/11/25 03:16:32;;;;;;;;;;;;;;;-5.99;85.04;96662.50;4996312;28;20348;-73
2023/11/25 03:18:58;;;;;;;;;;;;;;;-6.01;85.45;96664.59;4983875;28;20030;-73
2023/11/25 03:21:24;;;;;;;;;;;;;;;-5.98;nan;96664.09;4986312;28;20198;-73
2023/11/25 03:23:50;;;;;;;;;;;;;;;-5.94;85.75;96666.25;5002905;28;19960;-74
2023/11/25 03:26:16;;;;;;;;;;;;;;;-5.88;85.79;96670.59;4981681;28;20120;-74
2023/11/25 03:28:44;;;;;;;;;;;;;;;-5.90;85.28;96680.69;4983958;28;19926;-73
2023/11/25 03:31:10;;;;;;;;;;;;;;;-5.93;85.01;96684.66;4982817;28;19932;-74
2023/11/25 03:33:38;;;;;;;;;;;;;;;-5.96;84.47;96690.44;4980594;28;19929;-74
2023/11/25 03:36:04;;;;;;;;;;;;;;;-6.01;84.60;96674.44;4990285;28;19948;-74
2023/11/25 03:38:30;;;;;;;;;;;;;;;-6.02;85.24;96686.16;4985302;28;19926;-73
2023/11/25 03:40:56;;;;;;;;;;;;;;;-6.02;85.83;96684.28;5002284;28;19929;-80
2023/11/25 03:43:23;;;;;;;;;;;;;;;-6.03;86.19;96689.84;5001821;28;20449;-80
2023/11/25 03:45:49;;;;;;;;;;;;;;;-6.04;85.44;96699.69;5003473;28;19932;-79
2023/11/25 03:48:15;;;;;;;;;;;;;;;-6.05;84.92;96694.63;4969860;28;19925;-79
2023/11/25 03:50:42;;;;;;;;;;;;;;;-6.14;84.19;96703.00;4979907;28;20372;-80
2023/11/25 03:53:08;;;;;;;;;;;;;;;-6.23;84.74;96701.81;4981458;28;19949;-79
2023/11/25 03:55:34;;;;;;;;;;;;;;;-6.27;84.97;96719.28;4988959;28;20384;-79
2023/11/25 03:58:01;;;;;;;;;;;;;;;-6.31;85.22;96721.63;5001477;28;19949;-79
2023/11/25 04:00:27;;;;;;;;;;;;;;;-6.28;85.29;96728.31;4984814;28;19955;-79
2023/11/25 04:02:53;;;;;;;;;;;;;;;-6.19;85.17;96731.38;5003027;28;19926;-74
2023/11/25 04:05:20;;;;;;;;;;;;;;;-6.16;85.10;96734.34;5000072;28;19933;-74
2023/11/25 04:07:47;;;;;;;;;;;;;;;-6.06;85.12;96738.25;4999216;28;19931;-74
2023/11/25 04:10:13;;;;;;;;;;;;;;;-6.07;84.76;96737.41;4966598;28;20388;-74
2023/11/25 04:12:40;;;;;;;;;;;;;;;-6.07;84.59;96737.41;4998309;28;19925;-74
2023/11/25 04:15:06;;;;;;;;;;;;;;;-6.10;84.30;96737.91;4982912;28;19945;-73
2023/11/25 04:17:32;;;;;;;;;;;;;;;-6.18;83.46;96747.09;4981795;28;19925;-74
2023/11/25 04:19:58;;;;;;;;;;;;;;;-6.19;83.57;96750.81;5000741;28;19925;-73
2023/11/25 04:22:24;;;;;;;;;;;;;;;-6.14;84.28;96750.09;5002448;28;20396;-73
2023/11/25 04:24:52;;;;;;;;;;;;;;;-6.09;84.52;96750.16;5000732;28;19929;-74
2023/11/25 04:27:18;;;;;;;;;;;;;;;-6.05;84.73;96761.13;4999568;28;20319;-73
2023/11/25 04:29:44;;;;;;;;;;;;;;;-6.11;84.53;96765.56;5000551;28;19933;-80
2023/11/25 04:32:10;;;;;;;;;;;;;;;-6.16;85.13;96760.97;4985352;28;20804;-80
2023/11/25 04:34:36;;;;;;;;;;;;;;;-6.20;85.55;96773.13;4987932;28;19936;-80
2023/11/25 04:37:02;;;;;;;;;;;;;;;-6.20;85.67;96786.44;4984616;28;19925;-80
2023/11/25 04:39:28;;;;;;;;;;;;;;;-6.20;85.47;96781.13;5000600;28;20355;-80
2023/11/25 04:41:55;;;;;;;;;;;;;;;-6.19;85.45;96782.72;4999662;28;19925;-80
2023/11/25 04:44:21;;;;;;;;;;;;;;;-6.16;85.62;96778.78;4998881;28;19926;-80
2023/11/25 04:46:47;;;;;;;;;;;;;;;-6.21;85.63;96792.00;5001803;28;19925;-80
2023/11/25 04:49:13;;;;;;;;;;;;;;;-6.22;86.05;96787.72;4967115;28;19971;-81
2023/11/25 04:51:39;;;;;;;;;;;;;;;-6.21;85.81;96794.66;5002700;28;19929;-74
2023/11/25 04:54:05;;;;;;;;;;;;;;;-6.20;85.52;96793.59;4996903;28;19955;-80
2023/11/25 04:56:31;;;;;;;;;;;;;;;-6.16;85.75;96798.19;5004956;28;19925;-80
2023/11/25 04:58:58;;;;;;;;;;;;;;;-6.12;86.21;96814.50;5008701;28;19932;-80
2023/11/25 05:01:25;;;;;;;;;;;;;;;-6.12;85.95;96811.84;5003414;28;19932;-80
2023/11/25 05:03:51;;;;;;;;;;;;;;;-6.12;85.51;96812.63;5003847;28;19932;-78
2023/11/25 05:06:18;;;;;;;;;;;;;;;-6.07;85.87;96809.25;5001230;28;19926;-80
2023/11/25 05:08:45;;;;;;;;;;;;;;;-6.08;85.52;96806.84;4978002;28;19951;-80
2023/11/25 05:11:11;;;;;;;;;;;;;;;-6.10;85.47;96815.06;4983531;28;19937;-80
2023/11/25 05:13:37;;;;;;;;;;;;;;;-6.10;85.49;96819.56;4949887;28;20197;-80
2023/11/25 05:16:05;;;;;;;;;;;;;;;-6.12;85.82;96828.59;4969829;28;20087;-80
2023/11/25 05:18:31;;;;;;;;;;;;;;;-6.14;86.00;96822.72;4997194;28;19926;-81
2023/11/25 05:20:57;;;;;;;;;;;;;;;-6.07;86.31;96838.53;4987807;28;19933;-81
2023/11/25 05:23:25;;;;;;;;;;;;;;;-6.06;86.06;96832.16;4986302;28;19926;-80
2023/11/25 05:25:51;;;;;;;;;;;;;;;-6.05;85.74;96841.75;4987556;28;19971;-81
2023/11/25 05:28:17;;;;;;;;;;;;;;;-6.12;86.01;96841.91;4985893;28;19925;-81
2023/11/25 05:30:43;;;;;;;;;;;;;;;-6.05;85.95;96857.72;5003943;28;20249;-81
2023/11/25 05:33:10;;;;;;;;;;;;;;;-6.06;85.24;96864.09;4968938;28;20392;-80
2023/11/25 05:35:36;;;;;;;;;;;;;;;-6.03;85.30;96868.13;5001332;28;20257;-80
2023/11/25 05:38:04;;;;;;;;;;;;;;;-5.96;85.17;96876.72;5066648;28;20022;-79
2023/11/25 05:40:30;;;;;;;;;;;;;;;-5.92;84.47;96877.06;5069733;28;19924;-81
2023/11/25 05:42:57;;;;;;;;;;;;;;;-5.93;84.22;96883.44;5102371;28;20408;-80
2023/11/25 05:45:26;;;;;;;;;;;;;;;-5.93;83.82;96889.56;5104377;28;19976;-80
2023/11/25 05:47:52;;;;;;;;;;;;;;;-5.91;84.04;96889.31;4992490;28;19926;-79
2023/11/25 05:50:20;;;;;;;;;;;;;;;-5.88;84.11;96897.63;4982871;28;19925;-80
2023/11/25 05:52:49;;;;;;;;;;;;;;;-5.87;83.90;96901.09;5000314;28;19979;-75
2023/11/25 05:55:15;;;;;;;;;;;;;;;-5.84;84.07;96903.28;4985496;28;19978;-80
2023/11/25 05:57:44;;;;;;;;;;;;;;;-5.79;84.29;96903.38;4999752;28;19925;-79
2023/11/25 06:00:12;;;;;;;;;;;;;;;-5.78;82.64;96901.50;5000372;28;19978;-80
2023/11/25 06:02:38;;;;;;;;;;;;;;;-5.80;82.15;96916.91;4985744;28;20305;-80
2023/11/25 06:05:04;;;;;;;;;;;;;;;-5.91;81.86;96915.94;5063343;28;20343;-80
2023/11/25 06:07:32;;;;;;;;;;;;;;;-6.10;81.83;96913.50;5053241;28;19925;-80
2023/11/25 06:09:58;;;;;;;;;;;;;;;-6.01;81.47;96929.91;4998112;28;20382;-75
2023/11/25 06:12:25;;;;;;;;;;;;;;;-5.98;81.16;96940.03;4998080;28;19979;-75
2023/11/25 06:14:52;;;;;;;;;;;;;;;-5.92;81.04;96940.94;4982310;28;19925;-75
2023/11/25 06:17:20;;;;;;;;;;;;;;;-5.90;80.90;96946.81;5001998;28;20016;-75
2023/11/25 06:19:48;;;;;;;;;;;;;;;-5.90;80.36;96960.13;4999852;28;19987;-75
2023/11/25 06:22:14;;;;;;;;;;;;;;;-5.92;79.70;96962.22;4980465;28;19925;-76
2023/11/25 06:24:41;;;;;;;;;;;;;;;-5.87;79.29;96975.63;4996359;28;20322;-75
2023/11/25 06:27:07;;;;;;;;;;;;;;;-5.82;79.07;96982.91;4999109;28;20478;-75
2023/11/25 06:29:33;;;;;;;;;;;;;;;-5.81;78.73;96982.66;4997588;28;19970;-75
2023/11/25 06:31:59;;;;;;;;;;;;;;;-5.84;77.92;96985.81;4998228;28;19925;-76
2023/11/25 06:34:25;;;;;;;;;;;;;;;-5.90;77.68;96992.88;4997733;28;20494;-75
2023/11/25 06:36:52;;;;;;;;;;;;;;;-5.94;77.69;96991.72;5000970;28;20036;-75
2023/11/25 06:39:22;;;;;;;;;;;;;;;-5.98;77.76;97001.22;5098864;28;20406;-75
2023/11/25 06:41:49;;;;;;;;;;;;;;;-5.98;77.75;97004.72;5101035;28;20502;-75
2023/11/25 06:44:16;;;;;;;;;;;;;;;-5.97;77.97;97002.84;5104283;28;19923;-75
2023/11/25 06:46:42;;;;;;;;;;;;;;;-6.02;77.67;97002.78;5086166;28;19969;-80
2023/11/25 06:49:09;;;;;;;;;;;;;;;-5.99;78.23;97013.75;5013201;28;20531;-80
2023/11/25 06:51:35;;;;;;;;;;;;;;;-5.96;78.04;97020.44;5001035;28;19929;-80
2023/11/25 06:54:01;;;;;;;;;;;;;;;-5.90;77.76;97024.00;5004777;28;19925;-75
2023/11/25 06:56:27;;;;;;;;;;;;;;;-5.87;77.45;97026.19;5002967;28;19925;-75
2023/11/25 06:58:55;;;;;;;;;;;;;;;-5.86;77.44;97036.59;4999139;28;19939;-75
2023/11/25 07:01:21;;;;;;;;;;;;;;;-5.79;77.29;97033.00;4980585;28;20276;-76
2023/11/25 07:03:48;;;;;;;;;;;;;;;-5.82;77.34;97025.47;4984287;28;20435;-76
2023/11/25 07:06:17;;;;;;;;;;;;;;;-5.66;77.64;97046.03;4980203;28;20316;-76
2023/11/25 07:08:43;;;;;;;;;;;;;;;-5.58;77.30;97045.66;4993593;28;19960;-76
2023/11/25 07:11:13;;;;;;;;;;;;;;;-5.49;77.14;97056.75;4972835;28;19926;-76
2023/11/25 07:13:39;;;;;;;;;;;;;;;-5.52;76.56;97059.88;4975895;28;19925;-75
2023/11/25 07:16:08;;;;;;;;;;;;;;;-5.57;76.31;97057.09;4976068;28;19925;-75
2023/11/25 07:18:33;;;;;;;;;;;;;;;-5.57;76.09;97059.78;4978648;28;19937;-76
2023/11/25 07:21:00;;;;;;;;;;;;;;;-5.56;76.07;97069.38;4993760;28;20157;-75
2023/11/25 07:23:25;;;;;;;;;;;;;;;-5.52;75.95;97081.19;4996715;28;19929;-75
2023/11/25 07:25:52;;;;;;;;;;;;;;;-5.44;75.77;97088.00;4995182;28;20273;-76
2023/11/25 07:28:18;;;;;;;;;;;;;;;-5.45;75.70;97094.38;4996735;28;19925;-75
2023/11/25 07:30:44;;;;;;;;;;;;;;;-5.44;75.27;97111.97;5060132;28;20063;-75
2023/11/25 07:33:23;;;;;;;;;;;;;;;-5.44;75.19;97111.97;5097427;28;19927;-76
2023/11/25 07:35:49;;;;;;;;;;;;;;;-5.43;75.90;97118.91;5100722;28;19982;-76
2023/11/25 07:38:15;;;;;;;;;;;;;;;-5.38;76.66;97123.53;5102811;28;20326;-75
2023/11/25 07:40:44;;;;;;;;;;;;;;;-5.30;77.35;97134.63;5098293;28;20050;-77
2023/11/25 07:43:15;;;;;;;;;;;;;;;-5.14;77.72;97142.91;5081357;28;20309;-75
2023/11/25 07:45:40;;;;;;;;;;;;;;;-5.15;76.79;97147.41;5100456;28;19931;-75
2023/11/25 07:48:07;;;;;;;;;;;;;;;-5.14;76.33;97149.03;5064613;28;19925;-76
2023/11/25 07:50:35;;;;;;;;;;;;;;;-5.04;75.60;97158.25;5000469;28;19925;-75
2023/11/25 07:53:01;;;;;;;;;;;;;;;-5.02;75.02;97156.97;5000977;28;19947;-77
2023/11/25 07:55:27;;;;;;;;;;;;;;;-5.00;74.65;97157.53;5000596;28;19929;-76
2023/11/25 07:57:53;;;;;;;;;;;;;;;-4.95;74.03;97172.03;4999838;28;20397;-76
2023/11/25 08:00:19;;;;;;;;;;;;;;;-5.00;73.86;97170.84;5023753;28;19924;-76
2023/11/25 08:02:47;;;;;;;;;;;;;;;-5.00;74.43;97183.38;5019195;28;20379;-78
2023/11/25 08:05:21;;;;;;;;;;;;;;;-5.01;74.11;97184.44;4996661;28;19933;-78
2023/11/25 08:07:49;;;;;;;;;;;;;;;-5.05;73.98;97199.28;4995450;28;19926;-78
2023/11/25 08:10:16;;;;;;;;;;;;;;;-5.05;73.77;97197.41;5004132;28;20264;-77
2023/11/25 08:12:41;;;;;;;;;;;;;;;-5.05;73.65;97213.41;5001894;28;19988;-78
2023/11/25 08:15:09;;;;;;;;;;;;;;;-5.04;73.75;97207.03;4985264;28;19932;-77
2023/11/25 08:17:36;;;;;;;;;;;;;;;-5.03;73.52;97213.19;5002736;28;20175;-77
2023/11/25 08:20:02;;;;;;;;;;;;;;;-5.06;73.63;97209.13;5000895;28;19933;-78
2023/11/25 08:22:28;;;;;;;;;;;;;;;-5.06;73.75;97221.66;5001666;28;19965;-78
2023/11/25 08:24:57;;;;;;;;;;;;;;;-5.06;73.36;97235.78;5003360;28;20264;-78
2023/11/25 08:27:23;;;;;;;;;;;;;;;-5.08;73.26;97242.38;5001115;28;19926;-78
2023/11/25 08:29:49;;;;;;;;;;;;;;;-5.15;73.53;97242.50;5003820;28;19925;-78
2023/11/25 08:32:15;;;;;;;;;;;;;;;-5.14;73.71;97247.63;5002193;28;19970;-78
2023/11/25 08:34:41;;;;;;;;;;;;;;;-5.01;74.45;97246.53;5008286;28;20395;-77
2023/11/25 08:37:07;;;;;;;;;;;;;;;-4.81;74.83;97253.34;5004954;28;19929;-77
2023/11/25 08:39:33;;;;;;;;;;;;;;;-4.72;74.34;97262.56;5009413;28;19968;-76
2023/11/25 08:42:02;;;;;;;;;;;;;;;-4.77;73.36;97264.31;5109508;28;19931;-77
2023/11/25 08:44:28;;;;;;;;;;;;;;;-4.89;73.01;97269.69;5108693;28;19930;-77
2023/11/25 08:46:56;;;;;;;;;;;;;;;-4.96;73.16;97277.03;5107549;28;19924;-76
2023/11/25 08:49:23;;;;;;;;;;;;;;;-4.95;73.16;97297.31;5021684;28;19925;-78
2023/11/25 08:51:51;;;;;;;;;;;;;;;-4.82;73.41;97298.88;4999863;28;20036;-79
2023/11/25 08:54:20;;;;;;;;;;;;;;;-4.75;73.79;97299.56;5000745;28;19925;-78
2023/11/25 08:56:47;;;;;;;;;;;;;;;-4.67;73.38;97306.41;5002130;28;20476;-77
2023/11/25 08:59:18;;;;;;;;;;;;;;;-4.74;73.08;97307.31;4997893;28;19932;-76
2023/11/25 09:01:44;;;;;;;;;;;;;;;-4.66;73.05;97324.00;4996148;28;19926;-77
2023/11/25 09:04:19;;;;;;;;;;;;;;;-4.71;73.26;97327.38;4999858;28;20031;-77
2023/11/25 09:06:46;;;;;;;;;;;;;;;-4.65;73.27;97336.31;5003276;28;20380;-79
2023/11/25 09:09:13;;;;;;;;;;;;;;;-4.49;73.74;97334.72;4998430;28;19956;-79
2023/11/25 09:11:39;;;;;;;;;;;;;;;-4.52;72.65;97336.03;4968716;28;19974;-79
2023/11/25 09:14:06;;;;;;;;;;;;;;;-4.55;72.43;97336.47;4984252;28;19934;-78
2023/11/25 09:16:33;;;;;;;;;;;;;;;-4.54;72.21;97340.75;4983787;28;19929;-79
2023/11/25 09:19:00;;;;;;;;;;;;;;;-4.53;72.06;97345.06;4983768;28;20016;-80
2023/11/25 09:21:26;;;;;;;;;;;;;;;-4.35;72.28;97349.41;4988256;28;20422;-79
2023/11/25 09:23:53;;;;;;;;;;;;;;;-4.13;71.50;97338.88;4982249;28;19925;-79
2023/11/25 09:26:21;;;;;;;;;;;;;;;-4.07;70.64;97347.78;4983667;28;19926;-79
2023/11/25 09:28:47;;;;;;;;;;;;;;;-4.02;70.60;97352.41;4989390;28;19931;-80
2023/11/25 09:31:13;;;;;;;;;;;;;;;-4.04;70.52;97373.19;5003348;28;20037;-80
2023/11/25 09:33:40;;;;;;;;;;;;;;;-4.13;70.73;97378.91;5002051;28;19932;-80
2023/11/25 09:36:07;;;;;;;;;;;;;;;-4.15;71.53;97381.00;5001847;28;19933;-79
2023/11/25 09:38:33;;;;;;;;;;;;;;;-3.97;71.46;97389.88;4984306;28;19925;-80
2023/11/25 09:40:59;;;;;;;;;;;;;;;-3.94;71.16;97399.28;4984448;28;20248;-80
2023/11/25 09:43:25;;;;;;;;;;;;;;;-3.87;71.37;97405.25;5079051;28;20413;-80
2023/11/25 09:45:53;;;;;;;;;;;;;;;-3.80;71.26;97407.78;5102315;28;19927;-79
2023/11/25 09:48:19;;;;;;;;;;;;;;;-3.76;70.83;97419.59;5056090;28;19957;-78
2023/11/25 09:50:48;;;;;;;;;;;;;;;-3.88;70.16;97420.50;5017768;28;19923;-79
2023/11/25 09:53:19;;;;;;;;;;;;;;;-3.98;70.04;97430.97;5103990;28;19938;-77
2023/11/25 09:55:48;;;;;;;;;;;;;;;-4.00;70.43;97433.06;5088013;28;19924;-79
2023/11/25 09:58:17;;;;;;;;;;;;;;;-3.98;70.51;97444.31;5101428;28;19929;-77
2023/11/25 10:00:43;;;;;;;;;;;;;;;-3.97;70.07;97451.28;4999377;28;19932;-77
2023/11/25 10:03:10;;;;;;;;;;;;;;;-4.02;70.41;97454.66;5003768;28;20027;-77
2023/11/25 10:05:36;;;;;;;;;;;;;;;-4.02;71.78;97468.00;5001877;28;19948;-76
2023/11/25 10:08:04;;;;;;;;;;;;;;;-4.13;72.63;97471.53;5000015;28;20388;-76
2023/11/25 10:10:30;;;;;;;;;;;;;;;-4.13;73.60;97483.00;4995699;28;19925;-76
2023/11/25 10:12:56;;;;;;;;;;;;;;;-4.07;73.78;97480.44;5077488;28;19927;-77
2023/11/25 10:15:22;;;;;;;;;;;;;;;-4.13;73.68;97479.56;5101329;28;20026;-76
2023/11/25 10:17:48;;;;;;;;;;;;;;;-4.25;74.02;97484.09;5095010;28;19930;-77
2023/11/25 10:20:19;;;;;;;;;;;;;;;-4.29;74.30;97481.09;5003134;28;19925;-76
2023/11/25 10:22:48;;;;;;;;;;;;;;;-4.26;74.30;97496.63;4990316;28;20482;-77
2023/11/25 10:25:17;;;;;;;;;;;;;;;-4.21;74.47;97493.25;5003555;28;19925;-77
2023/11/25 10:27:45;;;;;;;;;;;;;;;-4.28;74.88;97512.88;5000925;28;20399;-77
2023/11/25 10:30:13;;;;;;;;;;;;;;;-4.27;74.66;97501.16;5001823;28;20303;-76
2023/11/25 10:32:39;;;;;;;;;;;;;;;-4.29;74.21;97502.44;4998659;28;19929;-76
2023/11/25 10:35:07;;;;;;;;;;;;;;;-4.43;74.35;97505.34;4981755;28;19925;-77
2023/11/25 10:37:34;;;;;;;;;;;;;;;-4.43;74.23;97520.56;5002757;28;20050;-77
2023/11/25 10:40:05;;;;;;;;;;;;;;;-4.36;73.64;97512.44;5001784;28;20380;-78
2023/11/25 10:42:36;;;;;;;;;;;;;;;-4.35;74.12;97519.38;4997383;28;20384;-79
2023/11/25 10:45:04;;;;;;;;;;;;;;;-4.32;74.48;97519.72;4999651;28;20374;-77
2023/11/25 10:47:31;;;;;;;;;;;;;;;-4.34;74.33;97526.34;4984303;28;19955;-77
2023/11/25 10:49:58;;;;;;;;;;;;;;;-4.37;74.51;97527.63;4999856;28;19974;-77
2023/11/25 10:52:24;;;;;;;;;;;;;;;-4.40;74.42;97530.75;4999704;28;20016;-77
2023/11/25 10:54:51;;;;;;;;;;;;;;;-4.35;74.99;97535.41;4997057;28;20694;-78
2023/11/25 10:57:18;;;;;;;;;;;;;;;-4.28;74.45;97542.25;4978713;28;20044;-77
2023/11/25 10:59:45;;;;;;;;;;;;;;;-4.31;73.22;97552.56;4996066;28;20322;-78
2023/11/25 11:02:16;;;;;;;;;;;;;;;-4.34;74.15;97561.84;4999577;28;19925;-79
2023/11/25 11:04:46;;;;;;;;;;;;;;;-4.37;74.88;97567.63;4996205;28;19932;-79
2023/11/25 11:07:15;;;;;;;;;;;;;;;-4.35;74.95;97564.75;4993837;28;19932;-80
2023/11/25 11:09:42;;;;;;;;;;;;;;;-4.38;74.88;97575.88;4995939;28;20344;-79
2023/11/25 11:12:13;;;;;;;;;;;;;;;-4.47;75.26;97580.75;4998038;28;20121;-80
2023/11/25 11:14:45;;;;;;;;;;;;;;;-4.51;75.38;97582.25;4998507;28;19932;-80
2023/11/25 11:17:18;;;;;;;;;;;;;;;-4.51;74.92;97585.75;4998172;28;19925;-80
2023/11/25 11:19:45;;;;;;;;;;;;;;;-4.54;73.88;97604.84;4998170;28;19925;-80
2023/11/25 11:22:11;;;;;;;;;;;;;;;-4.60;73.39;97611.94;5001532;28;19998;-78
2023/11/25 11:24:54;;;;;;;;;;;;;;;-4.54;74.27;97606.72;5002005;28;20391;-77
2023/11/25 11:27:26;;;;;;;;;;;;;;;-4.51;74.68;97609.75;4999892;28;19925;-78
2023/11/25 11:29:57;;;;;;;;;;;;;;;-4.45;75.14;97618.66;5002420;28;20353;-80
2023/11/25 11:32:30;;;;;;;;;;;;;;;-4.49;75.49;97623.69;5001335;28;19948;-79
2023/11/25 11:34:56;;;;;;;;;;;;;;;-4.50;76.68;97632.72;5002110;28;20452;-80
2023/11/25 11:37:22;;;;;;;;;;;;;;;-4.53;77.91;97640.38;5003133;28;19925;-80
2023/11/25 11:39:58;;;;;;;;;;;;;;;-4.52;78.75;97645.47;5003126;28;19925;-80
2023/11/25 11:42:39;;;;;;;;;;;;;;;-4.66;78.71;97649.41;5001340;28;19926;-79
2023/11/25 11:45:14;;;;;;;;;;;;;;;-4.73;79.93;97662.84;5003304;28;20161;-81
2023/11/25 11:47:44;;;;;;;;;;;;;;;-4.75;79.14;97662.25;4651165;28;10000400;-79
2023/11/25 11:50:14;;;;;;;;;;;;;;;-4.77;79.16;97664.31;4999970;28;19929;-79
2023/11/25 11:52:45;;;;;;;;;;;;;;;-4.86;79.72;97667.31;5000129;28;20430;-78
2023/11/25 11:55:26;;;;;;;;;;;;;;;-4.94;79.95;97680.94;4980990;28;19925;-79
2023/11/25 11:58:02;;;;;;;;;;;;;;;-4.96;80.39;97692.88;4998851;28;20461;-76
2023/11/25 12:00:29;;;;;;;;;;;;;;;-4.95;80.51;97694.50;4999216;28;19925;-77
2023/11/25 12:02:58;;;;;;;;;;;;;;;-4.92;80.61;97708.19;4992962;28;19963;-77
2023/11/25 12:05:24;;;;;;;;;;;;;;;-4.91;80.70;97703.69;4999783;28;20422;-77
2023/11/25 12:07:50;;;;;;;;;;;;;;;-4.97;80.82;97697.41;5000323;28;19925;-77
2023/11/25 12:10:16;;;;;;;;;;;;;;;-5.01;81.43;97706.88;4999485;28;19936;-77
2023/11/25 12:12:44;;;;;;;;;;;;;;;-5.09;80.50;97707.19;4964623;28;20384;-77
2023/11/25 12:15:11;;;;;;;;;;;;;;;-5.19;80.94;97705.88;4980592;28;19984;-78
2023/11/25 12:17:41;;;;;;;;;;;;;;;-5.14;80.53;97705.22;4977920;28;19929;-80
2023/11/25 12:20:10;;;;;;;;;;;;;;;-5.10;80.59;97714.38;4982466;28;19968;-79
2023/11/25 12:22:37;;;;;;;;;;;;;;;-5.08;80.53;97716.81;4990175;28;19930;-79
2023/11/25 12:25:03;;;;;;;;;;;;;;;-5.04;79.99;97728.66;4967455;28;19925;-78
2023/11/25 12:27:31;;;;;;;;;;;;;;;-5.08;79.65;97724.81;4982380;28;19926;-79
2023/11/25 12:29:57;;;;;;;;;;;;;;;-5.14;79.97;97727.34;4988664;28;20260;-79
2023/11/25 12:32:23;;;;;;;;;;;;;;;-5.06;80.65;97734.22;5002471;28;19960;-78
2023/11/25 12:34:49;;;;;;;;;;;;;;;-5.08;80.53;97724.81;5003142;28;19932;-79
2023/11/25 12:37:19;;;;;;;;;;;;;;;-5.09;80.25;97729.34;5079928;28;19923;-78
2023/11/25 12:39:44;;;;;;;;;;;;;;;-5.05;79.48;97740.38;4988855;28;20282;-78
2023/11/25 12:42:11;;;;;;;;;;;;;;;-5.05;79.06;97754.50;5002708;28;19983;-77
2023/11/25 12:44:47;;;;;;;;;;;;;;;-5.05;78.40;97764.38;4986245;28;19938;-77
2023/11/25 12:47:15;;;;;;;;;;;;;;;-5.05;78.05;97772.34;5065537;28;19923;-79